臺北終端管制區 - 桃園掃描雷達席

METAR RCTP 271130Z 03025KT 9999 FEW010 BKN018 BKN025 21/17 Q1022 NOSIG RMK A3020=

站台狀態:Online
最後更新:2020-11-27 19:30:02